createdAt,value
2022-11-25T00:00:12.030Z,2.700
2022-11-25T00:02:12.099Z,2.799
2022-11-25T00:03:11.215Z,3.200
2022-11-25T00:04:11.686Z,2.900
2022-11-25T00:05:11.359Z,2.599
2022-11-25T00:06:11.919Z,2.900
2022-11-25T00:07:12.234Z,3.099
2022-11-25T00:08:10.829Z,2.700
2022-11-25T00:09:11.590Z,3.099
2022-11-25T00:10:11.754Z,2.599
2022-11-25T00:11:11.145Z,3.400
2022-11-25T00:12:11.496Z,3
2022-11-25T00:13:11.079Z,3.099
2022-11-25T00:15:11.955Z,2.900
2022-11-25T00:16:11.911Z,3.099
2022-11-25T00:17:11.699Z,2.900
2022-11-25T00:18:11.382Z,3.200
2022-11-25T00:19:11.937Z,3.099
2022-11-25T00:20:11.816Z,3
2022-11-25T00:21:11.532Z,3.200
2022-11-25T00:22:11.056Z,3.299
2022-11-25T00:23:11.425Z,3.200
2022-11-25T00:24:11.964Z,3.299
2022-11-25T00:25:11.639Z,2.599
2022-11-25T00:26:11.363Z,3
2022-11-25T00:27:11.885Z,2.599
2022-11-25T00:28:11.336Z,2.799
2022-11-25T00:30:17.212Z,3.099
2022-11-25T00:31:11.905Z,3.299
2022-11-25T00:32:11.345Z,2.900
2022-11-25T00:33:11.683Z,2.700
2022-11-25T00:35:12.163Z,2.599
2022-11-25T00:36:11.956Z,3
2022-11-25T00:37:11.735Z,2.599
2022-11-25T00:38:11.792Z,3.200
2022-11-25T00:40:12.031Z,3
2022-11-25T00:41:11.729Z,2.799
2022-11-25T00:42:11.808Z,3.099
2022-11-25T00:43:11.867Z,2.900
2022-11-25T00:44:11.818Z,2.700
2022-11-25T00:45:12.148Z,2.799
2022-11-25T00:46:12.036Z,3.099
2022-11-25T00:47:12.106Z,2.599
2022-11-25T00:49:11.681Z,3.200
2022-11-25T00:50:11.361Z,3.400
2022-11-25T00:51:11.740Z,2.799
2022-11-25T00:52:25.720Z,3
2022-11-25T00:53:11.183Z,3.099
2022-11-25T00:56:11.941Z,3.400
2022-11-25T00:57:11.652Z,3.299
2022-11-25T00:58:11.186Z,3
2022-11-25T00:59:11.947Z,2.799
2022-11-25T01:00:12.311Z,3.099
2022-11-25T01:01:12.584Z,2.599
2022-11-25T01:02:31.164Z,2.799
2022-11-25T01:04:11.820Z,2.700
2022-11-25T01:07:12.015Z,2.900
2022-11-25T01:09:11.945Z,3
2022-11-25T01:10:11.531Z,2.900
2022-11-25T01:11:11.127Z,3.099
2022-11-25T01:13:11.888Z,2.900
2022-11-25T01:14:11.822Z,3.299
2022-11-25T01:15:11.356Z,3.400
2022-11-25T01:16:10.983Z,2.799
2022-11-25T01:17:11.970Z,2.900
2022-11-25T01:18:11.487Z,3.099
2022-11-25T01:19:12.117Z,3
2022-11-25T01:21:11.611Z,3.299
2022-11-25T01:22:10.924Z,2.900
2022-11-25T01:23:11.395Z,3
2022-11-25T01:25:11.707Z,3.200
2022-11-25T01:26:11.058Z,2.799
2022-11-25T01:27:11.549Z,3.099
2022-11-25T01:28:11.322Z,3
2022-11-25T01:29:11.907Z,2.799
2022-11-25T01:30:11.972Z,3
2022-11-25T01:32:11.013Z,2.799
2022-11-25T01:33:11.692Z,2.700
2022-11-25T01:34:11.216Z,2.900
2022-11-25T01:36:11.716Z,3
2022-11-25T01:37:11.567Z,2.900
2022-11-25T01:38:11.122Z,3
2022-11-25T01:39:11.755Z,3.299
2022-11-25T01:40:11.345Z,3.099
2022-11-25T01:41:11.622Z,2.799
2022-11-25T01:42:11.237Z,3.099
2022-11-25T01:43:11.881Z,2.900
2022-11-25T01:44:11.484Z,3.099
2022-11-25T01:45:11.131Z,2.799
2022-11-25T01:46:11.837Z,3
2022-11-25T01:47:11.695Z,3.200
2022-11-25T01:48:11.250Z,3
2022-11-25T01:49:12.059Z,2.700
2022-11-25T01:50:11.848Z,2.900
2022-11-25T01:51:11.432Z,3.099
2022-11-25T01:52:11.892Z,3
2022-11-25T01:53:11.329Z,3.400
2022-11-25T01:54:11.806Z,3.099
2022-11-25T01:56:10.859Z,2.799
2022-11-25T01:57:11.450Z,2.900
2022-11-25T01:58:10.796Z,2.700
2022-11-25T01:59:11.081Z,3
2022-11-25T02:00:12.229Z,2.900
2022-11-25T02:01:11.037Z,3
2022-11-25T02:02:11.858Z,2.599
2022-11-25T02:03:11.873Z,3.299
2022-11-25T02:04:11.591Z,3
2022-11-25T02:05:11.299Z,2.599
2022-11-25T02:09:11.456Z,3.200
2022-11-25T02:10:12.396Z,2.5
2022-11-25T02:11:11.246Z,2.400
2022-11-25T02:12:11.993Z,3.200
2022-11-25T02:13:11.540Z,3.099
2022-11-25T02:14:10.850Z,2.799
2022-11-25T02:15:11.832Z,3.099
2022-11-25T02:16:11.301Z,2.700
2022-11-25T02:17:11.893Z,2.799
2022-11-25T02:18:11.263Z,3.099
2022-11-25T02:19:11.788Z,2.900
2022-11-25T02:20:11.435Z,2.799
2022-11-25T02:22:11.220Z,2.900
2022-11-25T02:23:12.096Z,3.099
2022-11-25T02:24:11.687Z,3.299
2022-11-25T02:25:11.569Z,3.200
2022-11-25T02:26:11.194Z,2.900
2022-11-25T02:29:11.768Z,3.5
2022-11-25T02:30:12.467Z,2.5
2022-11-25T02:31:11.702Z,2.599
2022-11-25T02:33:11.283Z,2.799
2022-11-25T02:34:11.776Z,2.5
2022-11-25T02:35:11.512Z,2.700
2022-11-25T02:36:11.085Z,2.799
2022-11-25T02:38:11.497Z,2.700
2022-11-25T02:39:11.303Z,3
2022-11-25T02:40:12.369Z,2.900
2022-11-25T02:41:12.134Z,3
2022-11-25T02:42:11.701Z,2.799
2022-11-25T02:43:11.164Z,2.700
2022-11-25T02:44:11.714Z,3
2022-11-25T02:45:11.900Z,2.799
2022-11-25T02:46:11.234Z,3.099
2022-11-25T02:47:11.226Z,2.799
2022-11-25T02:48:11.842Z,2.700
2022-11-25T02:50:11.208Z,2.900
2022-11-25T02:52:11.157Z,3
2022-11-25T02:53:11.917Z,2.599
2022-11-25T02:54:11.375Z,2.400
2022-11-25T02:55:10.979Z,2.5
2022-11-25T02:56:11.532Z,2.599
2022-11-25T02:57:11.425Z,2.900
2022-11-25T02:58:11.126Z,2.599
2022-11-25T03:00:11.774Z,2.900
2022-11-25T03:01:16.563Z,3.400
2022-11-25T03:02:11.371Z,2.599
2022-11-25T03:03:11.208Z,2.700
2022-11-25T03:04:11.651Z,3.200
2022-11-25T03:05:11.269Z,2.599
2022-11-25T03:06:11.884Z,2.799
2022-11-25T03:07:11.584Z,2.599
2022-11-25T03:09:11.652Z,2.700
2022-11-25T03:10:11.444Z,3.099
2022-11-25T03:11:11.322Z,2.400
2022-11-25T03:12:12.169Z,2.799
2022-11-25T03:13:11.758Z,2.599
2022-11-25T03:15:11.146Z,2.400
2022-11-25T03:17:11.319Z,2.799
2022-11-25T03:18:11.400Z,3.200
2022-11-25T03:19:11.759Z,2.900
2022-11-25T03:20:11.373Z,2.700
2022-11-25T03:21:12.074Z,2.799
2022-11-25T03:23:11.100Z,2.900
2022-11-25T03:25:11.212Z,3
2022-11-25T03:26:11.582Z,2.799
2022-11-25T03:27:11.288Z,2.900
2022-11-25T03:28:11.627Z,2.599
2022-11-25T03:31:12.007Z,2.299
2022-11-25T03:32:11.709Z,2.700
2022-11-25T03:33:11.461Z,2.299
2022-11-25T03:34:11.208Z,2.5
2022-11-25T03:35:31.543Z,2.599
2022-11-25T03:36:12.018Z,2.400
2022-11-25T03:37:11.824Z,2
2022-11-25T03:38:11.867Z,2.299
2022-11-25T03:39:12.101Z,2.400
2022-11-25T03:40:12.163Z,2.299
2022-11-25T03:41:12.108Z,2.200
2022-11-25T03:42:11.727Z,2.299
2022-11-25T03:44:12.313Z,2.200
2022-11-25T03:46:11.502Z,2.299
2022-11-25T03:47:11.572Z,2.700
2022-11-25T03:51:11.980Z,2.900
2022-11-25T03:52:12.019Z,2.299
2022-11-25T03:53:11.121Z,2.700
2022-11-25T03:54:12.296Z,2.299
2022-11-25T03:55:12.531Z,2.599
2022-11-25T03:56:11.737Z,2.799
2022-11-25T03:57:12.076Z,2.5
2022-11-25T03:58:11.735Z,2.799
2022-11-25T04:00:12.529Z,2.599
2022-11-25T04:01:11.883Z,2.799
2022-11-25T04:02:12.116Z,2.299
2022-11-25T04:03:12.044Z,2.900
2022-11-25T04:04:11.935Z,2.599
2022-11-25T04:05:12.217Z,2.900
2022-11-25T04:06:12.052Z,2.599
2022-11-25T04:07:11.833Z,2.799
2022-11-25T04:09:11.214Z,2.599
2022-11-25T04:10:12.396Z,2.400
2022-11-25T04:11:11.125Z,2.700
2022-11-25T04:12:12.123Z,2.299
2022-11-25T04:13:11.505Z,2.5
2022-11-25T04:14:11.123Z,2.099
2022-11-25T04:15:12.148Z,2.299
2022-11-25T04:16:11.955Z,2.5
2022-11-25T04:17:11.971Z,2.299
2022-11-25T04:18:11.875Z,2.400
2022-11-25T04:19:11.844Z,2.200
2022-11-25T04:20:11.663Z,2.299
2022-11-25T04:21:11.534Z,2.200
2022-11-25T04:23:11.279Z,2.299
2022-11-25T04:26:11.400Z,2.599
2022-11-25T04:27:11.156Z,2.299
2022-11-25T04:28:11.467Z,2.599
2022-11-25T04:29:11.259Z,2.400
2022-11-25T04:30:11.215Z,2.799
2022-11-25T04:32:11.811Z,2.700
2022-11-25T04:33:11.523Z,2.599
2022-11-25T04:34:11.630Z,3.099
2022-11-25T04:35:11.658Z,2.5
2022-11-25T04:36:11.552Z,2.400
2022-11-25T04:37:11.480Z,2.799
2022-11-25T04:38:11.864Z,2.400
2022-11-25T04:39:11.795Z,2.599
2022-11-25T04:41:11.533Z,2.099
2022-11-25T04:43:11.530Z,2.200
2022-11-25T04:44:11.452Z,2.599
2022-11-25T04:45:22.959Z,2.400
2022-11-25T04:46:14.358Z,2.5
2022-11-25T04:49:11.279Z,2.599
2022-11-25T04:50:12.304Z,2.400
2022-11-25T04:51:12.195Z,2.799
2022-11-25T04:52:12.043Z,2.400
2022-11-25T04:53:11.757Z,2.200
2022-11-25T04:54:16.165Z,2.400
2022-11-25T04:57:11.757Z,2.299
2022-11-25T04:58:11.554Z,2.200
2022-11-25T04:59:11.455Z,2
2022-11-25T05:00:12.835Z,2.099
2022-11-25T05:01:11.249Z,2.200
2022-11-25T05:02:11.813Z,2
2022-11-25T05:03:11.750Z,2.700
2022-11-25T05:04:11.420Z,2.5
2022-11-25T05:05:12.457Z,2.099
2022-11-25T05:06:11.392Z,2.299
2022-11-25T05:07:12.257Z,2.099
2022-11-25T05:09:11.922Z,2.299
2022-11-25T05:10:11.908Z,1.899
2022-11-25T05:11:11.648Z,2.099
2022-11-25T05:12:11.226Z,2.200
2022-11-25T05:13:12.122Z,2.099
2022-11-25T05:19:11.712Z,2.599
2022-11-25T05:20:11.708Z,2.5
2022-11-25T05:22:11.212Z,2.099
2022-11-25T05:25:11.515Z,2.400
2022-11-25T05:26:11.208Z,2
2022-11-25T05:27:11.780Z,2.200
2022-11-25T05:28:11.264Z,2.099
2022-11-25T05:29:12.142Z,2.299
2022-11-25T05:31:12.113Z,2.200
2022-11-25T05:32:11.987Z,2.5
2022-11-25T05:33:11.838Z,2.200
2022-11-25T05:35:12.185Z,2.099
2022-11-25T05:36:11.928Z,2.599
2022-11-25T05:37:11.901Z,2.099
2022-11-25T05:38:10.944Z,2.400
2022-11-25T05:39:11.737Z,2.299
2022-11-25T05:40:11.742Z,2.5
2022-11-25T05:42:11.391Z,2.200
2022-11-25T05:44:11.868Z,2.299
2022-11-25T05:45:12.129Z,2
2022-11-25T05:46:12.160Z,2.299
2022-11-25T05:47:11.806Z,2
2022-11-25T05:48:11.172Z,2.099
2022-11-25T05:49:12.062Z,2.200
2022-11-25T05:50:12.027Z,2.099
2022-11-25T05:51:11.474Z,2
2022-11-25T05:52:11.309Z,2.099
2022-11-25T05:53:11.735Z,2
2022-11-25T05:54:11.757Z,2.099
2022-11-25T05:55:11.505Z,2
2022-11-25T05:56:11.929Z,2.299
2022-11-25T05:57:11.864Z,2.099
2022-11-25T05:58:11.595Z,1.899
2022-11-25T05:59:11.174Z,2.299
2022-11-25T06:00:12.313Z,2.400
2022-11-25T06:01:11.458Z,2
2022-11-25T06:02:11.367Z,2.400
2022-11-25T06:03:11.701Z,2.700
2022-11-25T06:04:11.451Z,2.400
2022-11-25T06:05:12.132Z,2.200
2022-11-25T06:06:11.728Z,2.599
2022-11-25T06:07:11.795Z,2.400
2022-11-25T06:08:11.415Z,2.5
2022-11-25T06:09:12.201Z,2.599
2022-11-25T06:11:11.675Z,2.700
2022-11-25T06:12:11.394Z,2.299
2022-11-25T06:13:11.342Z,2.5
2022-11-25T06:15:11.874Z,2.700
2022-11-25T06:16:11.543Z,2.400
2022-11-25T06:17:11.491Z,2.200
2022-11-25T06:19:11.079Z,2.400
2022-11-25T06:20:11.648Z,2.200
2022-11-25T06:21:11.781Z,2.5
2022-11-25T06:22:11.329Z,2.400
2022-11-25T06:23:12.054Z,2.099
2022-11-25T06:24:11.859Z,2.5
2022-11-25T06:25:12.002Z,2.400
2022-11-25T06:27:11.364Z,2.599
2022-11-25T06:28:13.322Z,2
2022-11-25T06:29:11.499Z,2.200
2022-11-25T06:31:11.297Z,2.299
2022-11-25T06:32:11.253Z,2.400
2022-11-25T06:33:12.011Z,2.099
2022-11-25T06:35:11.432Z,1.700
2022-11-25T06:36:11.271Z,1.899
2022-11-25T06:38:11.880Z,1.799
2022-11-25T06:42:11.722Z,1.700
2022-11-25T06:44:11.772Z,1.600
2022-11-25T06:45:11.911Z,1.799
2022-11-25T06:46:11.694Z,2
2022-11-25T06:47:11.593Z,1.700
2022-11-25T06:49:11.650Z,1.799
2022-11-25T06:50:11.692Z,1.700
2022-11-25T06:52:11.702Z,2
2022-11-25T06:53:11.520Z,1.799
2022-11-25T06:55:12.551Z,1.700
2022-11-25T06:56:11.305Z,1.799
2022-11-25T06:57:11.853Z,1.700
2022-11-25T06:58:34.465Z,1.799
2022-11-25T06:59:11.745Z,1.700
2022-11-25T07:00:12.354Z,1.600
2022-11-25T07:01:12.011Z,1.5
2022-11-25T07:02:11.225Z,1.700
2022-11-25T07:03:11.548Z,1.399
2022-11-25T07:04:11.505Z,2.099
2022-11-25T07:05:11.595Z,1.799
2022-11-25T07:06:11.341Z,2.099
2022-11-25T07:07:11.740Z,2
2022-11-25T07:08:11.875Z,1.700
2022-11-25T07:09:12.154Z,1.600
2022-11-25T07:10:12.272Z,2
2022-11-25T07:11:12.144Z,1.700
2022-11-25T07:12:12.004Z,1.600
2022-11-25T07:13:11.784Z,1.799
2022-11-25T07:15:11.675Z,1.899
2022-11-25T07:16:11.880Z,1.799
2022-11-25T07:17:12.426Z,1.399
2022-11-25T07:18:11.426Z,1.700
2022-11-25T07:21:11.636Z,1.600
2022-11-25T07:22:11.745Z,1.700
2022-11-25T07:23:11.923Z,1.799
2022-11-25T07:24:11.954Z,1.700
2022-11-25T07:25:12.358Z,1.399
2022-11-25T07:26:11.941Z,1.700
2022-11-25T07:27:11.905Z,1.5
2022-11-25T07:28:12.003Z,1.700
2022-11-25T07:29:43.924Z,1.600
2022-11-25T07:32:11.698Z,1.700
2022-11-25T07:33:11.995Z,1.799
2022-11-25T07:34:11.438Z,1.600
2022-11-25T07:35:11.783Z,1.399
2022-11-25T07:36:11.380Z,1.700
2022-11-25T07:37:11.100Z,1.600
2022-11-25T07:38:11.419Z,1.700
2022-11-25T07:39:11.408Z,1.799
2022-11-25T07:40:11.530Z,1.5
2022-11-25T07:41:11.567Z,1.700
2022-11-25T07:42:11.390Z,1.899
2022-11-25T07:43:11.259Z,2.099
2022-11-25T07:44:11.291Z,1.899
2022-11-25T07:46:11.357Z,2
2022-11-25T07:47:11.426Z,1.799
2022-11-25T07:48:11.359Z,1.600
2022-11-25T07:49:11.094Z,1.799
2022-11-25T07:50:12.482Z,1.700
2022-11-25T07:52:11.673Z,1.799
2022-11-25T07:53:11.215Z,1.600
2022-11-25T07:54:11.996Z,1.700
2022-11-25T07:55:12.310Z,1.5
2022-11-25T07:56:11.631Z,1.600
2022-11-25T07:57:11.409Z,1.700
2022-11-25T07:58:11.312Z,1.600
2022-11-25T07:59:12.223Z,1.700
2022-11-25T08:01:11.529Z,1.899
2022-11-25T08:02:12.147Z,1.5
2022-11-25T08:06:11.604Z,1.399
2022-11-25T08:07:11.549Z,1.799
2022-11-25T08:08:11.702Z,1.5
2022-11-25T08:09:11.731Z,1.399
2022-11-25T08:10:12.057Z,1.700
2022-11-25T08:11:11.971Z,1.899
2022-11-25T08:12:12.061Z,1.799
2022-11-25T08:13:11.621Z,1.600
2022-11-25T08:14:11.698Z,1.899
2022-11-25T08:15:11.932Z,1.5
2022-11-25T08:16:11.916Z,1.600
2022-11-25T08:17:12.255Z,1.799
2022-11-25T08:18:11.459Z,1.600
2022-11-25T08:19:11.909Z,1.799
2022-11-25T08:20:12.058Z,1.700
2022-11-25T08:22:11.980Z,1.799
2022-11-25T08:23:11.968Z,1.600
2022-11-25T08:24:11.398Z,1.700
2022-11-25T08:25:11.464Z,2
2022-11-25T08:26:11.495Z,1.799
2022-11-25T08:28:11.472Z,1.700
2022-11-25T08:29:11.340Z,1.799
2022-11-25T08:31:11.622Z,2.099
2022-11-25T08:32:12.245Z,1.899
2022-11-25T08:35:11.942Z,2.099
2022-11-25T08:36:11.857Z,1.899
2022-11-25T08:37:11.950Z,1.600
2022-11-25T08:38:11.914Z,2.400
2022-11-25T08:39:36.083Z,1.799
2022-11-25T08:40:11.438Z,2.099
2022-11-25T08:41:11.529Z,1.899
2022-11-25T08:42:11.669Z,2
2022-11-25T08:43:11.769Z,1.799
2022-11-25T08:44:11.821Z,1.700
2022-11-25T08:45:12.326Z,2.099
2022-11-25T08:46:11.543Z,1.700
2022-11-25T08:47:11.673Z,2
2022-11-25T08:49:11.828Z,2.299
2022-11-25T08:50:11.922Z,2
2022-11-25T08:52:12.198Z,2
2022-11-25T08:53:12.033Z,2.099
2022-11-25T08:54:11.861Z,2
2022-11-25T08:55:11.874Z,1.600
2022-11-25T08:56:11.831Z,2
2022-11-25T08:57:11.983Z,2.200
2022-11-25T08:58:11.643Z,2.299
2022-11-25T08:59:11.900Z,2.200
2022-11-25T09:00:12.769Z,2.299
2022-11-25T09:01:12.131Z,2
2022-11-25T09:02:11.530Z,2.200
2022-11-25T09:03:11.885Z,2
2022-11-25T09:04:12.095Z,1.799
2022-11-25T09:05:12.177Z,2.299
2022-11-25T09:06:11.350Z,2
2022-11-25T09:07:11.557Z,1.899
2022-11-25T09:08:11.510Z,2.299
2022-11-25T09:09:11.321Z,1.799
2022-11-25T09:11:11.636Z,1.899
2022-11-25T09:12:11.832Z,2
2022-11-25T09:13:11.908Z,2.099
2022-11-25T09:14:11.833Z,1.899
2022-11-25T09:15:11.966Z,2.099
2022-11-25T09:16:12.197Z,1.799
2022-11-25T09:17:11.759Z,1.700
2022-11-25T09:18:12.003Z,2
2022-11-25T09:19:11.373Z,2.200
2022-11-25T09:20:11.907Z,2
2022-11-25T09:22:11.887Z,1.799
2022-11-25T09:23:11.085Z,2.099
2022-11-25T09:24:12.003Z,2
2022-11-25T09:25:12.046Z,2.299
2022-11-25T09:27:12.038Z,2
2022-11-25T09:28:11.340Z,2.200
2022-11-25T09:29:11.466Z,1.899
2022-11-25T09:30:11.468Z,2.099
2022-11-25T09:33:12.150Z,2.400
2022-11-25T09:34:11.238Z,1.899
2022-11-25T09:35:11.539Z,2.200
2022-11-25T09:36:11.341Z,1.899
2022-11-25T09:37:11.492Z,2
2022-11-25T09:38:11.140Z,2.099
2022-11-25T09:40:11.573Z,2.200
2022-11-25T09:41:12.275Z,2.099
2022-11-25T09:42:11.574Z,2.200
2022-11-25T09:43:11.877Z,2
2022-11-25T09:45:12.163Z,2.200
2022-11-25T09:46:12.266Z,2
2022-11-25T09:47:12.118Z,2.200
2022-11-25T09:48:12.079Z,2.099
2022-11-25T09:50:11.549Z,2
2022-11-25T09:51:11.852Z,2.299
2022-11-25T09:52:11.995Z,2
2022-11-25T09:53:11.935Z,2.200
2022-11-25T09:54:11.979Z,2.099
2022-11-25T09:55:12.048Z,1.899
2022-11-25T09:56:12.290Z,2.200
2022-11-25T09:57:11.147Z,1.899
2022-11-25T09:58:12.529Z,2.200
2022-11-25T09:59:11.559Z,2.099
2022-11-25T10:01:11.368Z,1.899
2022-11-25T10:03:11.741Z,2.200
2022-11-25T10:04:11.854Z,1.899
2022-11-25T10:05:12.183Z,2
2022-11-25T10:06:11.969Z,1.899
2022-11-25T10:07:11.948Z,2
2022-11-25T10:08:12.148Z,1.899
2022-11-25T10:09:12.248Z,2.099
2022-11-25T10:11:11.426Z,1.899
2022-11-25T10:13:10.995Z,2.099
2022-11-25T10:14:12.109Z,2.299
2022-11-25T10:15:12.165Z,2.099
2022-11-25T10:16:17.115Z,2
2022-11-25T10:17:12.171Z,2.200
2022-11-25T10:19:11.982Z,1.899
2022-11-25T10:20:12.226Z,2
2022-11-25T10:21:11.479Z,2.400
2022-11-25T10:22:11.587Z,2
2022-11-25T10:23:11.598Z,2.200
2022-11-25T10:24:11.933Z,1.799
2022-11-25T10:25:12.069Z,2.299
2022-11-25T10:26:26.078Z,2.099
2022-11-25T10:27:12.378Z,1.899
2022-11-25T10:28:11.922Z,2.299
2022-11-25T10:29:12.308Z,2.400
2022-11-25T10:30:11.707Z,2
2022-11-25T10:31:12.428Z,2.299
2022-11-25T10:32:11.843Z,2.400
2022-11-25T10:34:11.891Z,2.200
2022-11-25T10:35:11.740Z,2.400
2022-11-25T10:36:11.580Z,2.5
2022-11-25T10:37:11.537Z,2.299
2022-11-25T10:38:25.469Z,2.099
2022-11-25T10:39:11.733Z,2.599
2022-11-25T10:40:12.246Z,2.099
2022-11-25T10:41:11.101Z,2.5
2022-11-25T10:42:12.651Z,2.299
2022-11-25T10:43:12.532Z,2
2022-11-25T10:44:11.773Z,1.799
2022-11-25T10:45:11.920Z,2.599
2022-11-25T10:48:11.904Z,2.299
2022-11-25T10:49:11.793Z,2.799
2022-11-25T10:50:12.069Z,2.299
2022-11-25T10:51:11.538Z,2.5
2022-11-25T10:52:11.321Z,2.400
2022-11-25T10:53:12.277Z,2.599
2022-11-25T10:54:11.364Z,2.900
2022-11-25T10:55:12.189Z,2.799
2022-11-25T10:56:12.186Z,2.5
2022-11-25T10:57:12.049Z,2.599
2022-11-25T10:58:11.927Z,2.400
2022-11-25T11:00:17.008Z,2.5
2022-11-25T11:01:11.669Z,2.599
2022-11-25T11:03:11.846Z,2.799
2022-11-25T11:04:11.669Z,2.5
2022-11-25T11:05:11.811Z,2.400
2022-11-25T11:06:11.772Z,2.900
2022-11-25T11:07:11.145Z,2.799
2022-11-25T11:08:11.846Z,2.400
2022-11-25T11:09:11.848Z,2.700
2022-11-25T11:10:12.085Z,2.799
2022-11-25T11:11:12.187Z,2.599
2022-11-25T11:12:12.493Z,2.700
2022-11-25T11:13:11.675Z,2.599
2022-11-25T11:14:11.622Z,2.400
2022-11-25T11:15:11.883Z,2.799
2022-11-25T11:16:12.080Z,2.5
2022-11-25T11:17:12.161Z,2.700
2022-11-25T11:18:12.297Z,3.099
2022-11-25T11:19:11.183Z,2.599
2022-11-25T11:21:12.066Z,2.900
2022-11-25T11:22:12.108Z,3
2022-11-25T11:23:11.761Z,2.799
2022-11-25T11:24:11.870Z,2.599
2022-11-25T11:25:11.795Z,2.700
2022-11-25T11:26:11.737Z,2.799
2022-11-25T11:27:11.822Z,2.700
2022-11-25T11:29:14.233Z,2.5
2022-11-25T11:30:11.532Z,2.599
2022-11-25T11:33:11.222Z,2.900
2022-11-25T11:34:12.051Z,2.700
2022-11-25T11:35:12.238Z,2.599
2022-11-25T11:36:11.449Z,3.099
2022-11-25T11:37:11.682Z,2.599
2022-11-25T11:38:11.548Z,2.700
2022-11-25T11:39:11.381Z,2.5
2022-11-25T11:40:11.557Z,2.799
2022-11-25T11:41:11.864Z,2.700
2022-11-25T11:43:11.434Z,3.099
2022-11-25T11:44:11.519Z,2.700
2022-11-25T11:46:11.588Z,2.799
2022-11-25T11:47:11.599Z,2.700
2022-11-25T11:48:11.400Z,2.599
2022-11-25T11:49:11.489Z,2.799
2022-11-25T11:50:11.858Z,2.5
2022-11-25T11:51:11.545Z,2.400
2022-11-25T11:52:11.466Z,2.599
2022-11-25T11:53:12.138Z,2.799
2022-11-25T11:54:11.445Z,2.900
2022-11-25T11:55:11.282Z,2.799
2022-11-25T11:56:34.138Z,2.700
2022-11-25T11:57:11.339Z,2.799
2022-11-25T11:58:12.141Z,2.700
2022-11-25T11:59:12.150Z,2.900
2022-11-25T12:00:12.908Z,2.599
2022-11-25T12:01:11.164Z,3.099
2022-11-25T12:02:11.502Z,2.799
2022-11-25T12:03:11.827Z,3
2022-11-25T12:04:11.759Z,2.599
2022-11-25T12:05:11.705Z,2.700
2022-11-25T12:06:11.607Z,3.200
2022-11-25T12:07:11.371Z,4.199
2022-11-25T12:08:11.255Z,3.299
2022-11-25T12:09:12.256Z,3
2022-11-25T12:10:11.315Z,2.599
2022-11-25T12:11:11.178Z,2.700
2022-11-25T12:12:11.181Z,3.099
2022-11-25T12:13:12.099Z,2.700
2022-11-25T12:14:11.601Z,3
2022-11-25T12:16:11.721Z,2.900
2022-11-25T12:17:12.069Z,2.700
2022-11-25T12:18:12.029Z,2.599
2022-11-25T12:19:12.438Z,2.5
2022-11-25T12:20:11.421Z,2.799
2022-11-25T12:21:11.558Z,2.900
2022-11-25T12:22:11.467Z,2.599
2022-11-25T12:23:11.688Z,2.5
2022-11-25T12:24:11.831Z,2.700
2022-11-25T12:25:12.009Z,2.599
2022-11-25T12:26:12.076Z,2.700
2022-11-25T12:27:12.324Z,2.599
2022-11-25T12:29:11.336Z,2.400
2022-11-25T12:32:12.021Z,2.700
2022-11-25T12:33:16.815Z,2.599
2022-11-25T12:34:11.575Z,2.5
2022-11-25T12:35:11.348Z,2.799
2022-11-25T12:37:16.781Z,2.599
2022-11-25T12:38:11.752Z,2.799
2022-11-25T12:39:17.111Z,2.700
2022-11-25T12:41:16.637Z,3.200
2022-11-25T12:42:11.561Z,2.799
2022-11-25T12:43:12.103Z,3
2022-11-25T12:44:11.951Z,2.299
2022-11-25T12:45:12.003Z,2.5
2022-11-25T12:46:11.800Z,3.299
2022-11-25T12:47:11.928Z,2.400
2022-11-25T12:48:11.581Z,2.599
2022-11-25T12:49:11.876Z,2.200
2022-11-25T12:50:12.452Z,2.5
2022-11-25T12:51:11.557Z,2.599
2022-11-25T12:52:11.268Z,2.900
2022-11-25T12:53:11.325Z,2.799
2022-11-25T12:54:11.746Z,2.400
2022-11-25T12:56:10.937Z,2.299
2022-11-25T12:58:11.555Z,2.5
2022-11-25T12:59:11.650Z,2.599
2022-11-25T13:02:12.138Z,2.700
2022-11-25T13:04:12.063Z,2.599
2022-11-25T13:05:38.996Z,2.799
2022-11-25T13:06:11.343Z,2.299
2022-11-25T13:07:11.306Z,2.200
2022-11-25T13:08:11.529Z,2.400
2022-11-25T13:09:11.752Z,2.5
2022-11-25T13:10:11.722Z,2.700
2022-11-25T13:11:12.468Z,2.900
2022-11-25T13:12:12.924Z,2.599
2022-11-25T13:15:12.466Z,2.799
2022-11-25T13:16:11.525Z,2.200
2022-11-25T13:17:12.179Z,2.5
2022-11-25T13:18:12.135Z,2.599
2022-11-25T13:19:34.619Z,2.400
2022-11-25T13:20:11.493Z,1.899
2022-11-25T13:21:11.223Z,2.200
2022-11-25T13:22:11.325Z,1.899
2022-11-25T13:23:12.289Z,2.099
2022-11-25T13:24:11.225Z,2
2022-11-25T13:25:11.642Z,2.299
2022-11-25T13:26:11.470Z,2.200
2022-11-25T13:27:11.348Z,2.400
2022-11-25T13:28:11.937Z,2.299
2022-11-25T13:30:12.325Z,2.099
2022-11-25T13:31:11.398Z,2.5
2022-11-25T13:32:11.557Z,2.099
2022-11-25T13:33:12.057Z,2
2022-11-25T13:34:11.691Z,2.400
2022-11-25T13:36:11.343Z,2.200
2022-11-25T13:37:11.590Z,3
2022-11-25T13:38:11.593Z,2.400
2022-11-25T13:39:11.556Z,2.099
2022-11-25T13:40:11.965Z,2.200
2022-11-25T13:41:12.091Z,2.5
2022-11-25T13:42:12.210Z,2.900
2022-11-25T13:43:14.950Z,2.299
2022-11-25T13:44:11.453Z,2.200
2022-11-25T13:45:12.126Z,2.599
2022-11-25T13:46:11.673Z,2.400
2022-11-25T13:47:11.943Z,2.299
2022-11-25T13:48:12.143Z,2.400
2022-11-25T13:49:11.868Z,2.700
2022-11-25T13:50:13.696Z,2.799
2022-11-25T13:51:12.251Z,2.700
2022-11-25T13:52:11.352Z,2.299
2022-11-25T13:53:11.960Z,2.099
2022-11-25T13:54:12.465Z,2.299
2022-11-25T13:55:12.128Z,2.799
2022-11-25T13:57:11.444Z,2.299
2022-11-25T13:58:11.438Z,2.099
2022-11-25T13:59:11.683Z,2.200
2022-11-25T14:00:12.266Z,2.299
2022-11-25T14:01:12.196Z,2.200
2022-11-25T14:02:12.233Z,2
2022-11-25T14:03:11.811Z,2.200
2022-11-25T14:04:12.232Z,2
2022-11-25T14:05:11.467Z,2.099
2022-11-25T14:06:12.023Z,2
2022-11-25T14:07:15.721Z,2.400
2022-11-25T14:08:11.835Z,2.200
2022-11-25T14:09:11.731Z,2.400
2022-11-25T14:10:12.455Z,2.099
2022-11-25T14:12:11.194Z,1.799
2022-11-25T14:13:11.616Z,1.899
2022-11-25T14:14:11.625Z,2.200
2022-11-25T14:15:12.284Z,2.400
2022-11-25T14:16:11.596Z,2
2022-11-25T14:18:11.533Z,1.899
2022-11-25T14:19:43.194Z,1.799
2022-11-25T14:20:11.865Z,1.899
2022-11-25T14:21:12.309Z,1.799
2022-11-25T14:22:12.115Z,1.899
2022-11-25T14:23:12.174Z,2.200
2022-11-25T14:24:12.165Z,2
2022-11-25T14:25:12.452Z,2.099
2022-11-25T14:26:21.054Z,2.200
2022-11-25T14:27:12.139Z,1.799
2022-11-25T14:28:12.042Z,2.200
2022-11-25T14:29:12.145Z,2
2022-11-25T14:30:12.400Z,2.200
2022-11-25T14:31:11.949Z,2
2022-11-25T14:32:12.411Z,2.099
2022-11-25T14:33:11.384Z,1.799
2022-11-25T14:34:11.304Z,1.899
2022-11-25T14:36:11.891Z,2.099
2022-11-25T14:37:11.930Z,1.799
2022-11-25T14:38:11.975Z,1.899
2022-11-25T14:39:12.418Z,1.700
2022-11-25T14:41:12.197Z,1.799
2022-11-25T14:42:11.652Z,1.899
2022-11-25T14:43:12.005Z,1.799
2022-11-25T14:44:12.330Z,1.899
2022-11-25T14:45:12.026Z,2
2022-11-25T14:47:11.822Z,1.799
2022-11-25T14:48:11.996Z,1.700
2022-11-25T14:49:30.659Z,2
2022-11-25T14:51:12.332Z,2.599
2022-11-25T14:52:11.611Z,2.299
2022-11-25T14:53:11.930Z,1.899
2022-11-25T14:54:11.962Z,2
2022-11-25T14:55:12.426Z,1.899
2022-11-25T14:56:11.747Z,2.099
2022-11-25T14:57:12.098Z,2
2022-11-25T14:58:11.884Z,1.899
2022-11-25T14:59:12.020Z,1.799
2022-11-25T15:00:18.108Z,2.099
2022-11-25T15:01:11.635Z,2.299
2022-11-25T15:02:17.315Z,2.400
2022-11-25T15:03:12.284Z,2.299
2022-11-25T15:04:16.729Z,2.799
2022-11-25T15:05:12.556Z,2.5
2022-11-25T15:06:16.723Z,2.799
2022-11-25T15:07:12.628Z,2.5
2022-11-25T15:08:11.827Z,2.700
2022-11-25T15:09:12.102Z,2.400
2022-11-25T15:10:12.254Z,2.5
2022-11-25T15:11:12.222Z,2.099
2022-11-25T15:12:11.539Z,2.400
2022-11-25T15:13:11.383Z,2.5
2022-11-25T15:14:11.604Z,2.700
2022-11-25T15:15:11.838Z,2.400
2022-11-25T15:16:12.184Z,2.5
2022-11-25T15:17:12.049Z,2.200
2022-11-25T15:18:11.361Z,2.099
2022-11-25T15:20:26.431Z,2.200
2022-11-25T15:21:12.765Z,2.099
2022-11-25T15:22:23.191Z,1.899
2022-11-25T15:23:11.575Z,2.099
2022-11-25T15:24:11.702Z,2.299
2022-11-25T15:25:11.911Z,2.5
2022-11-25T15:26:11.827Z,2.299
2022-11-25T15:27:11.768Z,2.400
2022-11-25T15:28:11.433Z,2.799
2022-11-25T15:29:11.424Z,2.700
2022-11-25T15:30:14.437Z,2.799
2022-11-25T15:32:11.731Z,2.200
2022-11-25T15:33:11.820Z,2.900